sensor_id;sensor_type;location;lat;lon;timestamp;P1;durP1;ratioP1;P2;durP2;ratioP2
7324;SDS011;3703;48.016;7.802;2022-10-30T00:00:16;7.90;;;4.03;;
7324;SDS011;3703;48.016;7.802;2022-10-30T00:03:04;9.70;;;4.90;;
7324;SDS011;3703;48.016;7.802;2022-10-30T00:05:53;9.30;;;4.77;;
7324;SDS011;3703;48.016;7.802;2022-10-30T00:08:41;11.90;;;5.77;;
7324;SDS011;3703;48.016;7.802;2022-10-30T00:11:28;9.03;;;5.53;;
7324;SDS011;3703;48.016;7.802;2022-10-30T00:14:16;14.60;;;7.70;;
7324;SDS011;3703;48.016;7.802;2022-10-30T00:17:04;12.73;;;7.47;;
7324;SDS011;3703;48.016;7.802;2022-10-30T00:19:51;14.70;;;5.60;;
7324;SDS011;3703;48.016;7.802;2022-10-30T00:22:40;10.63;;;5.70;;
7324;SDS011;3703;48.016;7.802;2022-10-30T00:25:28;10.37;;;6.23;;
7324;SDS011;3703;48.016;7.802;2022-10-30T00:28:16;11.17;;;5.97;;
7324;SDS011;3703;48.016;7.802;2022-10-30T00:31:04;9.13;;;4.40;;
7324;SDS011;3703;48.016;7.802;2022-10-30T00:33:52;9.57;;;4.27;;
7324;SDS011;3703;48.016;7.802;2022-10-30T00:36:40;7.17;;;4.20;;
7324;SDS011;3703;48.016;7.802;2022-10-30T00:39:29;8.17;;;4.60;;
7324;SDS011;3703;48.016;7.802;2022-10-30T00:42:17;11.47;;;5.37;;
7324;SDS011;3703;48.016;7.802;2022-10-30T00:45:05;11.43;;;5.00;;
7324;SDS011;3703;48.016;7.802;2022-10-30T00:47:55;8.13;;;4.67;;
7324;SDS011;3703;48.016;7.802;2022-10-30T00:50:48;9.03;;;4.50;;
7324;SDS011;3703;48.016;7.802;2022-10-30T00:53:35;11.77;;;4.87;;
7324;SDS011;3703;48.016;7.802;2022-10-30T00:56:25;9.23;;;4.10;;
7324;SDS011;3703;48.016;7.802;2022-10-30T00:59:14;8.63;;;4.17;;
7324;SDS011;3703;48.016;7.802;2022-10-30T01:02:05;10.80;;;4.30;;
7324;SDS011;3703;48.016;7.802;2022-10-30T01:04:53;8.73;;;4.47;;
7324;SDS011;3703;48.016;7.802;2022-10-30T01:07:41;8.60;;;4.60;;
7324;SDS011;3703;48.016;7.802;2022-10-30T01:10:29;9.50;;;4.40;;
7324;SDS011;3703;48.016;7.802;2022-10-30T01:13:18;9.57;;;4.47;;
7324;SDS011;3703;48.016;7.802;2022-10-30T01:16:16;12.47;;;4.80;;
7324;SDS011;3703;48.016;7.802;2022-10-30T01:19:21;7.47;;;4.20;;
7324;SDS011;3703;48.016;7.802;2022-10-30T01:22:16;11.30;;;4.50;;
7324;SDS011;3703;48.016;7.802;2022-10-30T01:25:22;9.03;;;4.60;;
7324;SDS011;3703;48.016;7.802;2022-10-30T01:28:34;9.37;;;4.37;;
7324;SDS011;3703;48.016;7.802;2022-10-30T01:31:40;7.53;;;4.00;;
7324;SDS011;3703;48.016;7.802;2022-10-30T01:34:39;8.57;;;4.50;;
7324;SDS011;3703;48.016;7.802;2022-10-30T01:37:37;8.87;;;4.63;;
7324;SDS011;3703;48.016;7.802;2022-10-30T01:40:31;8.43;;;4.57;;
7324;SDS011;3703;48.016;7.802;2022-10-30T01:43:19;8.63;;;5.00;;
7324;SDS011;3703;48.016;7.802;2022-10-30T01:46:11;9.60;;;5.10;;
7324;SDS011;3703;48.016;7.802;2022-10-30T01:53:03;9.80;;;4.30;;
7324;SDS011;3703;48.016;7.802;2022-10-30T01:56:05;13.00;;;4.23;;
7324;SDS011;3703;48.016;7.802;2022-10-30T01:59:05;11.77;;;4.50;;
7324;SDS011;3703;48.016;7.802;2022-10-30T02:02:01;13.43;;;5.23;;
7324;SDS011;3703;48.016;7.802;2022-10-30T02:04:49;9.33;;;4.57;;
7324;SDS011;3703;48.016;7.802;2022-10-30T02:07:37;10.30;;;4.63;;
7324;SDS011;3703;48.016;7.802;2022-10-30T02:10:24;8.93;;;4.50;;
7324;SDS011;3703;48.016;7.802;2022-10-30T02:13:13;10.17;;;4.47;;
7324;SDS011;3703;48.016;7.802;2022-10-30T02:16:00;10.93;;;4.50;;
7324;SDS011;3703;48.016;7.802;2022-10-30T02:18:50;7.83;;;5.07;;
7324;SDS011;3703;48.016;7.802;2022-10-30T02:21:39;7.77;;;4.63;;
7324;SDS011;3703;48.016;7.802;2022-10-30T02:24:27;7.50;;;4.17;;
7324;SDS011;3703;48.016;7.802;2022-10-30T02:27:14;9.30;;;5.37;;
7324;SDS011;3703;48.016;7.802;2022-10-30T02:30:02;10.33;;;5.07;;
7324;SDS011;3703;48.016;7.802;2022-10-30T02:32:51;7.90;;;5.00;;
7324;SDS011;3703;48.016;7.802;2022-10-30T02:35:38;11.33;;;4.70;;
7324;SDS011;3703;48.016;7.802;2022-10-30T02:38:27;8.13;;;4.40;;
7324;SDS011;3703;48.016;7.802;2022-10-30T02:41:15;10.53;;;5.03;;
7324;SDS011;3703;48.016;7.802;2022-10-30T02:44:03;8.30;;;4.67;;
7324;SDS011;3703;48.016;7.802;2022-10-30T02:46:52;9.07;;;4.20;;
7324;SDS011;3703;48.016;7.802;2022-10-30T02:49:39;8.17;;;5.00;;
7324;SDS011;3703;48.016;7.802;2022-10-30T02:52:27;8.47;;;4.67;;
7324;SDS011;3703;48.016;7.802;2022-10-30T02:55:16;8.70;;;4.70;;
7324;SDS011;3703;48.016;7.802;2022-10-30T02:58:03;10.37;;;4.97;;
7324;SDS011;3703;48.016;7.802;2022-10-30T03:00:51;6.83;;;4.57;;
7324;SDS011;3703;48.016;7.802;2022-10-30T03:03:39;6.47;;;5.20;;
7324;SDS011;3703;48.016;7.802;2022-10-30T03:06:27;6.93;;;4.30;;
7324;SDS011;3703;48.016;7.802;2022-10-30T03:09:15;8.87;;;5.03;;
7324;SDS011;3703;48.016;7.802;2022-10-30T03:12:04;8.37;;;5.10;;
7324;SDS011;3703;48.016;7.802;2022-10-30T03:14:52;8.80;;;5.13;;
7324;SDS011;3703;48.016;7.802;2022-10-30T03:17:39;7.83;;;4.73;;
7324;SDS011;3703;48.016;7.802;2022-10-30T03:20:27;8.93;;;4.80;;
7324;SDS011;3703;48.016;7.802;2022-10-30T03:23:15;6.10;;;3.97;;
7324;SDS011;3703;48.016;7.802;2022-10-30T03:26:02;10.83;;;4.97;;
7324;SDS011;3703;48.016;7.802;2022-10-30T03:28:52;6.90;;;4.10;;
7324;SDS011;3703;48.016;7.802;2022-10-30T03:31:39;8.07;;;4.40;;
7324;SDS011;3703;48.016;7.802;2022-10-30T03:34:27;7.80;;;4.50;;
7324;SDS011;3703;48.016;7.802;2022-10-30T03:37:14;10.73;;;4.93;;
7324;SDS011;3703;48.016;7.802;2022-10-30T03:40:02;7.40;;;4.17;;
7324;SDS011;3703;48.016;7.802;2022-10-30T03:42:50;10.03;;;4.70;;
7324;SDS011;3703;48.016;7.802;2022-10-30T03:45:39;7.77;;;4.13;;
7324;SDS011;3703;48.016;7.802;2022-10-30T03:48:32;8.70;;;4.13;;
7324;SDS011;3703;48.016;7.802;2022-10-30T03:51:19;8.67;;;4.50;;
7324;SDS011;3703;48.016;7.802;2022-10-30T03:54:07;10.23;;;4.33;;
7324;SDS011;3703;48.016;7.802;2022-10-30T03:56:54;11.53;;;4.47;;
7324;SDS011;3703;48.016;7.802;2022-10-30T03:59:42;9.60;;;3.83;;
7324;SDS011;3703;48.016;7.802;2022-10-30T04:02:31;9.40;;;4.60;;
7324;SDS011;3703;48.016;7.802;2022-10-30T04:05:19;9.03;;;4.50;;
7324;SDS011;3703;48.016;7.802;2022-10-30T04:08:10;10.43;;;4.47;;
7324;SDS011;3703;48.016;7.802;2022-10-30T04:10:59;8.73;;;5.07;;
7324;SDS011;3703;48.016;7.802;2022-10-30T04:13:47;8.83;;;4.33;;
7324;SDS011;3703;48.016;7.802;2022-10-30T04:16:34;11.53;;;5.70;;
7324;SDS011;3703;48.016;7.802;2022-10-30T04:19:23;8.43;;;4.80;;
7324;SDS011;3703;48.016;7.802;2022-10-30T04:22:11;11.30;;;5.00;;
7324;SDS011;3703;48.016;7.802;2022-10-30T04:24:58;7.93;;;4.27;;
7324;SDS011;3703;48.016;7.802;2022-10-30T04:27:46;9.77;;;4.60;;
7324;SDS011;3703;48.016;7.802;2022-10-30T04:30:33;14.50;;;5.03;;
7324;SDS011;3703;48.016;7.802;2022-10-30T04:33:23;9.20;;;4.87;;
7324;SDS011;3703;48.016;7.802;2022-10-30T04:36:12;8.47;;;4.30;;
7324;SDS011;3703;48.016;7.802;2022-10-30T04:38:59;7.90;;;4.37;;
7324;SDS011;3703;48.016;7.802;2022-10-30T04:41:47;8.17;;;5.00;;
7324;SDS011;3703;48.016;7.802;2022-10-30T04:44:35;7.47;;;5.30;;
7324;SDS011;3703;48.016;7.802;2022-10-30T04:47:23;8.73;;;4.60;;
7324;SDS011;3703;48.016;7.802;2022-10-30T04:50:11;9.83;;;5.10;;
7324;SDS011;3703;48.016;7.802;2022-10-30T04:53:01;8.77;;;4.90;;
7324;SDS011;3703;48.016;7.802;2022-10-30T04:55:52;11.73;;;5.27;;
7324;SDS011;3703;48.016;7.802;2022-10-30T04:58:40;9.30;;;5.10;;
7324;SDS011;3703;48.016;7.802;2022-10-30T05:01:28;13.00;;;5.00;;
7324;SDS011;3703;48.016;7.802;2022-10-30T05:04:16;9.27;;;4.90;;
7324;SDS011;3703;48.016;7.802;2022-10-30T05:07:03;8.73;;;5.90;;
7324;SDS011;3703;48.016;7.802;2022-10-30T05:09:52;13.20;;;6.83;;
7324;SDS011;3703;48.016;7.802;2022-10-30T05:12:40;8.50;;;5.37;;
7324;SDS011;3703;48.016;7.802;2022-10-30T05:15:28;10.90;;;5.33;;
7324;SDS011;3703;48.016;7.802;2022-10-30T05:18:16;13.80;;;7.13;;
7324;SDS011;3703;48.016;7.802;2022-10-30T05:21:04;12.97;;;6.70;;
7324;SDS011;3703;48.016;7.802;2022-10-30T05:23:51;13.30;;;7.83;;
7324;SDS011;3703;48.016;7.802;2022-10-30T05:26:40;9.87;;;6.03;;
7324;SDS011;3703;48.016;7.802;2022-10-30T05:29:28;11.43;;;5.80;;
7324;SDS011;3703;48.016;7.802;2022-10-30T05:32:16;10.73;;;6.30;;
7324;SDS011;3703;48.016;7.802;2022-10-30T05:35:04;11.83;;;6.33;;
7324;SDS011;3703;48.016;7.802;2022-10-30T05:37:53;8.80;;;5.93;;
7324;SDS011;3703;48.016;7.802;2022-10-30T05:40:40;9.43;;;5.07;;
7324;SDS011;3703;48.016;7.802;2022-10-30T05:43:33;9.30;;;5.17;;
7324;SDS011;3703;48.016;7.802;2022-10-30T05:46:20;8.03;;;5.30;;
7324;SDS011;3703;48.016;7.802;2022-10-30T05:49:08;9.70;;;5.20;;
7324;SDS011;3703;48.016;7.802;2022-10-30T05:51:55;10.10;;;5.77;;
7324;SDS011;3703;48.016;7.802;2022-10-30T05:54:43;11.17;;;5.20;;
7324;SDS011;3703;48.016;7.802;2022-10-30T05:57:31;7.53;;;5.03;;
7324;SDS011;3703;48.016;7.802;2022-10-30T06:00:20;10.27;;;5.13;;
7324;SDS011;3703;48.016;7.802;2022-10-30T06:03:09;8.23;;;5.33;;
7324;SDS011;3703;48.016;7.802;2022-10-30T06:05:57;11.33;;;5.77;;
7324;SDS011;3703;48.016;7.802;2022-10-30T06:08:45;7.27;;;4.87;;
7324;SDS011;3703;48.016;7.802;2022-10-30T06:11:32;7.97;;;5.53;;
7324;SDS011;3703;48.016;7.802;2022-10-30T06:14:20;7.27;;;5.73;;
7324;SDS011;3703;48.016;7.802;2022-10-30T06:17:09;12.53;;;5.37;;
7324;SDS011;3703;48.016;7.802;2022-10-30T06:19:57;13.57;;;5.70;;
7324;SDS011;3703;48.016;7.802;2022-10-30T06:22:51;9.53;;;5.20;;
7324;SDS011;3703;48.016;7.802;2022-10-30T06:25:40;13.10;;;5.67;;
7324;SDS011;3703;48.016;7.802;2022-10-30T06:28:28;14.53;;;5.60;;
7324;SDS011;3703;48.016;7.802;2022-10-30T06:31:15;11.93;;;5.37;;
7324;SDS011;3703;48.016;7.802;2022-10-30T06:34:04;8.13;;;4.80;;
7324;SDS011;3703;48.016;7.802;2022-10-30T06:36:52;14.23;;;5.17;;
7324;SDS011;3703;48.016;7.802;2022-10-30T06:39:39;11.63;;;5.20;;
7324;SDS011;3703;48.016;7.802;2022-10-30T06:42:27;8.13;;;5.07;;
7324;SDS011;3703;48.016;7.802;2022-10-30T06:45:15;12.93;;;5.57;;
7324;SDS011;3703;48.016;7.802;2022-10-30T06:48:04;13.67;;;6.67;;
7324;SDS011;3703;48.016;7.802;2022-10-30T06:50:54;22.10;;;7.90;;
7324;SDS011;3703;48.016;7.802;2022-10-30T06:53:43;15.00;;;8.07;;
7324;SDS011;3703;48.016;7.802;2022-10-30T06:56:30;12.27;;;6.80;;
7324;SDS011;3703;48.016;7.802;2022-10-30T06:59:18;12.07;;;6.23;;
7324;SDS011;3703;48.016;7.802;2022-10-30T07:02:07;10.53;;;6.03;;
7324;SDS011;3703;48.016;7.802;2022-10-30T07:04:55;9.43;;;5.43;;
7324;SDS011;3703;48.016;7.802;2022-10-30T07:07:44;10.40;;;5.40;;
7324;SDS011;3703;48.016;7.802;2022-10-30T07:10:32;10.60;;;6.33;;
7324;SDS011;3703;48.016;7.802;2022-10-30T07:13:19;11.00;;;5.73;;
7324;SDS011;3703;48.016;7.802;2022-10-30T07:16:07;10.70;;;6.07;;
7324;SDS011;3703;48.016;7.802;2022-10-30T07:18:55;9.37;;;5.87;;
7324;SDS011;3703;48.016;7.802;2022-10-30T07:21:42;15.87;;;6.83;;
7324;SDS011;3703;48.016;7.802;2022-10-30T07:24:31;13.23;;;6.87;;
7324;SDS011;3703;48.016;7.802;2022-10-30T07:27:19;10.80;;;6.27;;
7324;SDS011;3703;48.016;7.802;2022-10-30T07:30:07;14.23;;;7.20;;
7324;SDS011;3703;48.016;7.802;2022-10-30T07:32:57;14.63;;;8.07;;
7324;SDS011;3703;48.016;7.802;2022-10-30T07:35:46;17.33;;;8.97;;
7324;SDS011;3703;48.016;7.802;2022-10-30T07:38:34;14.80;;;7.90;;
7324;SDS011;3703;48.016;7.802;2022-10-30T07:41:22;12.97;;;8.13;;
7324;SDS011;3703;48.016;7.802;2022-10-30T07:44:10;15.50;;;8.63;;
7324;SDS011;3703;48.016;7.802;2022-10-30T07:46:58;11.97;;;8.20;;
7324;SDS011;3703;48.016;7.802;2022-10-30T07:49:45;15.80;;;8.27;;
7324;SDS011;3703;48.016;7.802;2022-10-30T07:52:33;16.47;;;8.87;;
7324;SDS011;3703;48.016;7.802;2022-10-30T07:55:20;13.73;;;8.37;;
7324;SDS011;3703;48.016;7.802;2022-10-30T07:58:10;16.03;;;8.20;;
7324;SDS011;3703;48.016;7.802;2022-10-30T08:00:57;13.83;;;8.23;;
7324;SDS011;3703;48.016;7.802;2022-10-30T08:03:47;12.20;;;8.00;;
7324;SDS011;3703;48.016;7.802;2022-10-30T08:06:35;14.60;;;9.13;;
7324;SDS011;3703;48.016;7.802;2022-10-30T08:09:23;12.60;;;8.70;;
7324;SDS011;3703;48.016;7.802;2022-10-30T08:12:10;13.03;;;7.87;;
7324;SDS011;3703;48.016;7.802;2022-10-30T08:14:59;16.00;;;8.40;;
7324;SDS011;3703;48.016;7.802;2022-10-30T08:17:47;11.50;;;6.77;;
7324;SDS011;3703;48.016;7.802;2022-10-30T08:20:36;13.27;;;7.97;;
7324;SDS011;3703;48.016;7.802;2022-10-30T08:23:24;13.77;;;6.83;;
7324;SDS011;3703;48.016;7.802;2022-10-30T08:26:11;19.67;;;7.40;;
7324;SDS011;3703;48.016;7.802;2022-10-30T08:28:59;12.37;;;7.03;;
7324;SDS011;3703;48.016;7.802;2022-10-30T08:31:48;9.53;;;6.80;;
7324;SDS011;3703;48.016;7.802;2022-10-30T08:34:36;8.83;;;6.53;;
7324;SDS011;3703;48.016;7.802;2022-10-30T08:37:24;13.43;;;7.63;;
7324;SDS011;3703;48.016;7.802;2022-10-30T08:40:12;12.87;;;7.90;;
7324;SDS011;3703;48.016;7.802;2022-10-30T08:42:59;14.17;;;7.37;;
7324;SDS011;3703;48.016;7.802;2022-10-30T08:45:47;13.13;;;7.60;;
7324;SDS011;3703;48.016;7.802;2022-10-30T08:48:36;14.47;;;8.07;;
7324;SDS011;3703;48.016;7.802;2022-10-30T08:51:24;14.17;;;7.10;;
7324;SDS011;3703;48.016;7.802;2022-10-30T08:54:11;11.40;;;7.43;;
7324;SDS011;3703;48.016;7.802;2022-10-30T08:56:59;14.33;;;7.37;;
7324;SDS011;3703;48.016;7.802;2022-10-30T08:59:46;10.00;;;7.27;;
7324;SDS011;3703;48.016;7.802;2022-10-30T09:02:34;11.10;;;6.70;;
7324;SDS011;3703;48.016;7.802;2022-10-30T09:05:25;11.60;;;7.67;;
7324;SDS011;3703;48.016;7.802;2022-10-30T09:08:12;8.37;;;7.10;;
7324;SDS011;3703;48.016;7.802;2022-10-30T09:11:00;10.53;;;6.63;;
7324;SDS011;3703;48.016;7.802;2022-10-30T09:13:48;11.27;;;6.50;;
7324;SDS011;3703;48.016;7.802;2022-10-30T09:16:35;14.00;;;6.97;;
7324;SDS011;3703;48.016;7.802;2022-10-30T09:19:23;13.23;;;7.07;;
7324;SDS011;3703;48.016;7.802;2022-10-30T09:22:14;10.30;;;7.13;;
7324;SDS011;3703;48.016;7.802;2022-10-30T09:25:02;12.27;;;6.30;;
7324;SDS011;3703;48.016;7.802;2022-10-30T09:27:50;9.40;;;6.80;;
7324;SDS011;3703;48.016;7.802;2022-10-30T09:30:38;10.63;;;5.70;;
7324;SDS011;3703;48.016;7.802;2022-10-30T09:33:25;12.70;;;5.97;;
7324;SDS011;3703;48.016;7.802;2022-10-30T09:36:13;9.90;;;6.43;;
7324;SDS011;3703;48.016;7.802;2022-10-30T09:39:03;8.10;;;5.63;;
7324;SDS011;3703;48.016;7.802;2022-10-30T09:41:58;10.80;;;6.03;;
7324;SDS011;3703;48.016;7.802;2022-10-30T09:45:08;10.77;;;6.03;;
7324;SDS011;3703;48.016;7.802;2022-10-30T09:51:41;12.03;;;6.93;;
7324;SDS011;3703;48.016;7.802;2022-10-30T09:54:57;13.17;;;6.90;;
7324;SDS011;3703;48.016;7.802;2022-10-30T09:57:56;12.00;;;6.13;;
7324;SDS011;3703;48.016;7.802;2022-10-30T10:00:55;9.57;;;6.10;;
7324;SDS011;3703;48.016;7.802;2022-10-30T10:03:56;7.50;;;5.80;;
7324;SDS011;3703;48.016;7.802;2022-10-30T10:06:51;10.23;;;6.00;;
7324;SDS011;3703;48.016;7.802;2022-10-30T10:09:43;10.63;;;6.00;;
7324;SDS011;3703;48.016;7.802;2022-10-30T10:12:36;9.57;;;5.70;;
7324;SDS011;3703;48.016;7.802;2022-10-30T10:15:31;11.43;;;5.80;;
7324;SDS011;3703;48.016;7.802;2022-10-30T10:18:28;13.03;;;5.90;;
7324;SDS011;3703;48.016;7.802;2022-10-30T10:21:22;10.27;;;6.33;;
7324;SDS011;3703;48.016;7.802;2022-10-30T10:24:13;9.53;;;5.87;;
7324;SDS011;3703;48.016;7.802;2022-10-30T10:27:07;10.40;;;6.20;;
7324;SDS011;3703;48.016;7.802;2022-10-30T10:30:03;12.30;;;6.90;;
7324;SDS011;3703;48.016;7.802;2022-10-30T10:33:00;8.57;;;6.50;;
7324;SDS011;3703;48.016;7.802;2022-10-30T10:36:22;14.10;;;6.90;;
7324;SDS011;3703;48.016;7.802;2022-10-30T10:39:32;10.33;;;6.07;;
7324;SDS011;3703;48.016;7.802;2022-10-30T10:42:38;9.93;;;5.40;;
7324;SDS011;3703;48.016;7.802;2022-10-30T10:45:38;11.63;;;5.90;;
7324;SDS011;3703;48.016;7.802;2022-10-30T10:48:40;13.87;;;6.80;;
7324;SDS011;3703;48.016;7.802;2022-10-30T10:51:41;8.60;;;5.23;;
7324;SDS011;3703;48.016;7.802;2022-10-30T10:54:34;9.73;;;5.43;;
7324;SDS011;3703;48.016;7.802;2022-10-30T10:57:26;7.67;;;4.90;;
7324;SDS011;3703;48.016;7.802;2022-10-30T11:00:19;8.57;;;5.93;;
7324;SDS011;3703;48.016;7.802;2022-10-30T11:03:12;15.17;;;6.03;;
7324;SDS011;3703;48.016;7.802;2022-10-30T11:06:10;11.43;;;5.17;;
7324;SDS011;3703;48.016;7.802;2022-10-30T11:09:11;6.57;;;4.23;;
7324;SDS011;3703;48.016;7.802;2022-10-30T11:12:04;10.30;;;4.53;;
7324;SDS011;3703;48.016;7.802;2022-10-30T11:14:52;9.70;;;5.17;;
7324;SDS011;3703;48.016;7.802;2022-10-30T11:17:40;7.97;;;4.67;;
7324;SDS011;3703;48.016;7.802;2022-10-30T11:20:39;8.57;;;4.43;;
7324;SDS011;3703;48.016;7.802;2022-10-30T11:23:37;10.77;;;4.83;;
7324;SDS011;3703;48.016;7.802;2022-10-30T11:26:27;9.50;;;5.13;;
7324;SDS011;3703;48.016;7.802;2022-10-30T11:29:19;14.23;;;4.67;;
7324;SDS011;3703;48.016;7.802;2022-10-30T11:32:10;7.13;;;4.17;;
7324;SDS011;3703;48.016;7.802;2022-10-30T11:35:10;9.83;;;5.17;;
7324;SDS011;3703;48.016;7.802;2022-10-30T11:38:12;9.80;;;4.70;;
7324;SDS011;3703;48.016;7.802;2022-10-30T11:41:06;13.67;;;4.60;;
7324;SDS011;3703;48.016;7.802;2022-10-30T11:43:54;10.03;;;4.70;;
7324;SDS011;3703;48.016;7.802;2022-10-30T11:46:42;12.20;;;4.50;;
7324;SDS011;3703;48.016;7.802;2022-10-30T11:49:40;10.40;;;4.23;;
7324;SDS011;3703;48.016;7.802;2022-10-30T11:52:34;12.40;;;4.83;;
7324;SDS011;3703;48.016;7.802;2022-10-30T11:55:27;7.30;;;4.13;;
7324;SDS011;3703;48.016;7.802;2022-10-30T11:58:21;8.63;;;4.60;;
7324;SDS011;3703;48.016;7.802;2022-10-30T12:01:16;7.87;;;4.20;;
7324;SDS011;3703;48.016;7.802;2022-10-30T12:04:12;8.50;;;4.53;;
7324;SDS011;3703;48.016;7.802;2022-10-30T12:07:07;11.37;;;4.23;;
7324;SDS011;3703;48.016;7.802;2022-10-30T12:10:07;7.77;;;5.07;;
7324;SDS011;3703;48.016;7.802;2022-10-30T12:13:12;8.67;;;4.97;;
7324;SDS011;3703;48.016;7.802;2022-10-30T12:16:03;8.00;;;4.37;;
7324;SDS011;3703;48.016;7.802;2022-10-30T12:19:01;10.30;;;4.90;;
7324;SDS011;3703;48.016;7.802;2022-10-30T12:21:51;8.37;;;3.93;;
7324;SDS011;3703;48.016;7.802;2022-10-30T12:24:41;7.47;;;4.20;;
7324;SDS011;3703;48.016;7.802;2022-10-30T12:27:30;8.83;;;3.87;;
7324;SDS011;3703;48.016;7.802;2022-10-30T12:30:24;8.40;;;4.07;;
7324;SDS011;3703;48.016;7.802;2022-10-30T12:33:15;6.37;;;3.57;;
7324;SDS011;3703;48.016;7.802;2022-10-30T12:36:10;6.63;;;4.40;;
7324;SDS011;3703;48.016;7.802;2022-10-30T12:39:03;15.97;;;4.63;;
7324;SDS011;3703;48.016;7.802;2022-10-30T12:41:58;7.53;;;4.00;;
7324;SDS011;3703;48.016;7.802;2022-10-30T12:44:52;8.77;;;4.07;;
7324;SDS011;3703;48.016;7.802;2022-10-30T12:47:57;10.97;;;3.93;;
7324;SDS011;3703;48.016;7.802;2022-10-30T12:50:51;9.27;;;3.73;;
7324;SDS011;3703;48.016;7.802;2022-10-30T12:53:53;6.43;;;3.97;;
7324;SDS011;3703;48.016;7.802;2022-10-30T12:56:47;15.23;;;4.57;;
7324;SDS011;3703;48.016;7.802;2022-10-30T12:59:45;6.50;;;4.17;;
7324;SDS011;3703;48.016;7.802;2022-10-30T13:02:49;10.93;;;4.43;;
7324;SDS011;3703;48.016;7.802;2022-10-30T13:05:46;11.80;;;5.27;;
7324;SDS011;3703;48.016;7.802;2022-10-30T13:08:38;10.23;;;4.10;;
7324;SDS011;3703;48.016;7.802;2022-10-30T13:11:37;8.37;;;4.17;;
7324;SDS011;3703;48.016;7.802;2022-10-30T13:14:32;6.70;;;3.83;;
7324;SDS011;3703;48.016;7.802;2022-10-30T13:17:24;8.13;;;3.70;;
7324;SDS011;3703;48.016;7.802;2022-10-30T13:20:14;10.23;;;4.03;;
7324;SDS011;3703;48.016;7.802;2022-10-30T13:23:04;8.70;;;4.40;;
7324;SDS011;3703;48.016;7.802;2022-10-30T13:26:02;10.33;;;4.17;;
7324;SDS011;3703;48.016;7.802;2022-10-30T13:29:04;8.77;;;4.37;;
7324;SDS011;3703;48.016;7.802;2022-10-30T13:32:09;8.53;;;3.83;;
7324;SDS011;3703;48.016;7.802;2022-10-30T13:35:19;8.00;;;3.87;;
7324;SDS011;3703;48.016;7.802;2022-10-30T13:38:23;7.17;;;4.00;;
7324;SDS011;3703;48.016;7.802;2022-10-30T13:41:24;12.83;;;4.43;;
7324;SDS011;3703;48.016;7.802;2022-10-30T13:44:21;8.50;;;3.97;;
7324;SDS011;3703;48.016;7.802;2022-10-30T13:47:22;11.23;;;4.20;;
7324;SDS011;3703;48.016;7.802;2022-10-30T13:50:27;10.10;;;4.10;;
7324;SDS011;3703;48.016;7.802;2022-10-30T13:53:26;7.93;;;4.27;;
7324;SDS011;3703;48.016;7.802;2022-10-30T13:56:16;10.57;;;4.40;;
7324;SDS011;3703;48.016;7.802;2022-10-30T13:59:09;9.80;;;5.77;;
7324;SDS011;3703;48.016;7.802;2022-10-30T14:02:16;10.63;;;6.23;;
7324;SDS011;3703;48.016;7.802;2022-10-30T14:05:27;9.90;;;4.93;;
7324;SDS011;3703;48.016;7.802;2022-10-30T14:08:24;8.63;;;5.30;;
7324;SDS011;3703;48.016;7.802;2022-10-30T14:11:19;7.47;;;4.70;;
7324;SDS011;3703;48.016;7.802;2022-10-30T14:14:22;8.93;;;4.20;;
7324;SDS011;3703;48.016;7.802;2022-10-30T14:17:14;8.57;;;3.93;;
7324;SDS011;3703;48.016;7.802;2022-10-30T14:23:15;10.50;;;4.60;;
7324;SDS011;3703;48.016;7.802;2022-10-30T14:26:11;7.57;;;3.70;;
7324;SDS011;3703;48.016;7.802;2022-10-30T14:29:00;7.70;;;4.13;;
7324;SDS011;3703;48.016;7.802;2022-10-30T14:32:47;9.87;;;4.03;;
7324;SDS011;3703;48.016;7.802;2022-10-30T14:35:38;6.57;;;3.13;;
7324;SDS011;3703;48.016;7.802;2022-10-30T14:38:26;6.07;;;3.70;;
7324;SDS011;3703;48.016;7.802;2022-10-30T14:44:58;6.10;;;3.43;;
7324;SDS011;3703;48.016;7.802;2022-10-30T14:47:55;8.50;;;3.37;;
7324;SDS011;3703;48.016;7.802;2022-10-30T14:50:51;8.93;;;3.80;;
7324;SDS011;3703;48.016;7.802;2022-10-30T14:53:53;9.20;;;3.60;;
7324;SDS011;3703;48.016;7.802;2022-10-30T14:56:48;8.90;;;3.87;;
7324;SDS011;3703;48.016;7.802;2022-10-30T14:59:38;12.13;;;3.90;;
7324;SDS011;3703;48.016;7.802;2022-10-30T15:02:29;6.07;;;4.03;;
7324;SDS011;3703;48.016;7.802;2022-10-30T15:05:45;9.07;;;3.33;;
7324;SDS011;3703;48.016;7.802;2022-10-30T15:08:45;7.80;;;3.43;;
7324;SDS011;3703;48.016;7.802;2022-10-30T15:11:53;9.90;;;3.87;;
7324;SDS011;3703;48.016;7.802;2022-10-30T15:15:05;6.67;;;3.57;;
7324;SDS011;3703;48.016;7.802;2022-10-30T15:18:00;8.90;;;3.63;;
7324;SDS011;3703;48.016;7.802;2022-10-30T15:20:55;6.90;;;4.57;;
7324;SDS011;3703;48.016;7.802;2022-10-30T15:23:49;10.53;;;4.00;;
7324;SDS011;3703;48.016;7.802;2022-10-30T15:26:38;7.83;;;3.73;;
7324;SDS011;3703;48.016;7.802;2022-10-30T15:29:26;7.90;;;4.70;;
7324;SDS011;3703;48.016;7.802;2022-10-30T15:32:19;7.00;;;4.30;;
7324;SDS011;3703;48.016;7.802;2022-10-30T15:35:13;8.53;;;4.13;;
7324;SDS011;3703;48.016;7.802;2022-10-30T15:38:05;7.93;;;4.27;;
7324;SDS011;3703;48.016;7.802;2022-10-30T15:40:55;6.40;;;4.53;;
7324;SDS011;3703;48.016;7.802;2022-10-30T15:43:46;9.37;;;5.13;;
7324;SDS011;3703;48.016;7.802;2022-10-30T15:46:34;8.07;;;5.20;;
7324;SDS011;3703;48.016;7.802;2022-10-30T15:49:25;9.13;;;5.17;;
7324;SDS011;3703;48.016;7.802;2022-10-30T15:52:18;7.97;;;5.20;;
7324;SDS011;3703;48.016;7.802;2022-10-30T15:55:12;11.93;;;5.87;;
7324;SDS011;3703;48.016;7.802;2022-10-30T15:58:02;9.47;;;5.77;;
7324;SDS011;3703;48.016;7.802;2022-10-30T16:00:54;9.77;;;5.20;;
7324;SDS011;3703;48.016;7.802;2022-10-30T16:03:49;10.60;;;5.87;;
7324;SDS011;3703;48.016;7.802;2022-10-30T16:06:38;10.57;;;5.60;;
7324;SDS011;3703;48.016;7.802;2022-10-30T16:09:26;11.23;;;6.00;;
7324;SDS011;3703;48.016;7.802;2022-10-30T16:12:16;9.73;;;5.10;;
7324;SDS011;3703;48.016;7.802;2022-10-30T16:15:04;9.73;;;5.80;;
7324;SDS011;3703;48.016;7.802;2022-10-30T16:18:03;11.43;;;5.60;;
7324;SDS011;3703;48.016;7.802;2022-10-30T16:20:59;10.77;;;5.67;;
7324;SDS011;3703;48.016;7.802;2022-10-30T16:23:51;9.67;;;6.00;;
7324;SDS011;3703;48.016;7.802;2022-10-30T16:26:41;9.43;;;6.00;;
7324;SDS011;3703;48.016;7.802;2022-10-30T16:29:31;9.50;;;6.17;;
7324;SDS011;3703;48.016;7.802;2022-10-30T16:32:20;8.60;;;6.37;;
7324;SDS011;3703;48.016;7.802;2022-10-30T16:35:11;10.03;;;5.93;;
7324;SDS011;3703;48.016;7.802;2022-10-30T16:37:59;11.30;;;6.93;;
7324;SDS011;3703;48.016;7.802;2022-10-30T16:40:48;10.07;;;7.00;;
7324;SDS011;3703;48.016;7.802;2022-10-30T16:43:36;10.20;;;7.20;;
7324;SDS011;3703;48.016;7.802;2022-10-30T16:46:33;9.13;;;7.13;;
7324;SDS011;3703;48.016;7.802;2022-10-30T16:49:25;10.53;;;7.33;;
7324;SDS011;3703;48.016;7.802;2022-10-30T16:52:15;12.77;;;8.23;;
7324;SDS011;3703;48.016;7.802;2022-10-30T16:55:03;14.53;;;8.60;;
7324;SDS011;3703;48.016;7.802;2022-10-30T16:57:55;13.43;;;7.40;;
7324;SDS011;3703;48.016;7.802;2022-10-30T17:00:47;10.00;;;8.03;;
7324;SDS011;3703;48.016;7.802;2022-10-30T17:03:39;11.10;;;8.13;;
7324;SDS011;3703;48.016;7.802;2022-10-30T17:06:28;12.50;;;8.57;;
7324;SDS011;3703;48.016;7.802;2022-10-30T17:09:25;13.17;;;9.53;;
7324;SDS011;3703;48.016;7.802;2022-10-30T17:12:17;14.53;;;8.97;;
7324;SDS011;3703;48.016;7.802;2022-10-30T17:15:10;13.40;;;9.33;;
7324;SDS011;3703;48.016;7.802;2022-10-30T17:18:09;10.87;;;7.50;;
7324;SDS011;3703;48.016;7.802;2022-10-30T17:21:04;15.23;;;9.10;;
7324;SDS011;3703;48.016;7.802;2022-10-30T17:23:57;13.67;;;8.93;;
7324;SDS011;3703;48.016;7.802;2022-10-30T17:26:52;11.83;;;8.70;;
7324;SDS011;3703;48.016;7.802;2022-10-30T17:29:44;12.03;;;8.93;;
7324;SDS011;3703;48.016;7.802;2022-10-30T17:32:41;13.10;;;9.13;;
7324;SDS011;3703;48.016;7.802;2022-10-30T17:35:32;12.67;;;9.60;;
7324;SDS011;3703;48.016;7.802;2022-10-30T17:38:21;14.20;;;9.97;;
7324;SDS011;3703;48.016;7.802;2022-10-30T17:41:09;15.67;;;10.40;;
7324;SDS011;3703;48.016;7.802;2022-10-30T17:44:01;15.50;;;10.83;;
7324;SDS011;3703;48.016;7.802;2022-10-30T17:46:50;12.40;;;9.93;;
7324;SDS011;3703;48.016;7.802;2022-10-30T17:49:39;16.60;;;11.13;;
7324;SDS011;3703;48.016;7.802;2022-10-30T17:52:27;18.93;;;11.40;;